Time;durP1;ratioP1;P1;durP2;ratioP2;P2;SDS_P1;SDS_P2;PMS_P1;PMS_P2;Temp;Humidity;BMP_temperature;BMP_pressure;BME280_temperature;BME280_humidity;BME280_pressure;Samples;Min_cycle;Max_cycle;Signal;HPM_P1;HPM_P2
2022/02/19 00:00:38;;;;;;;1.73;0.98;;;;;;;-0.14;100.00;100415.16;4996245;28;20749;-87
2022/02/19 00:03:03;;;;;;;3.45;1.60;;;;;;;-0.07;100.00;100409.31;4987355;28;20136;-88
2022/02/19 00:05:29;;;;;;;0.70;0.70;;;;;;;0.09;100.00;100413.44;4987327;28;20179;-87
2022/02/19 00:07:56;;;;;;;0.60;0.60;;;;;;;0.35;100.00;100414.91;4974404;28;20041;-86
2022/02/19 00:10:22;;;;;;;2.53;0.85;;;;;;;0.58;100.00;100409.63;4958553;28;20499;-86
2022/02/19 00:12:47;;;;;;;1.38;0.85;;;;;;;0.70;100.00;100402.53;5007242;28;20063;-85
2022/02/19 00:15:13;;;;;;;8.07;0.98;;;;;;;0.79;100.00;100412.38;4961931;28;20041;-88
2022/02/19 00:17:38;;;;;;;4.28;1.00;;;;;;;0.83;100.00;100414.69;4992762;28;20080;-89
2022/02/19 00:20:07;;;;;;;3.90;1.23;;;;;;;0.83;100.00;100396.16;4961542;28;20451;-87
2022/02/19 00:22:35;;;;;;;3.50;1.08;;;;;;;0.96;100.00;100390.72;4973093;28;20122;-88
2022/02/19 00:25:02;;;;;;;0.70;0.70;;;;;;;1.05;100.00;100418.25;4986368;28;20145;-87
2022/02/19 00:27:28;;;;;;;12.27;1.60;;;;;;;0.85;100.00;100385.47;5009755;28;20497;-90
2022/02/19 00:29:53;;;;;;;4.40;1.08;;;;;;;1.03;100.00;100399.00;4978300;28;20042;-86
2022/02/19 00:32:19;;;;;;;1.20;1.10;;;;;;;1.05;100.00;100405.84;4975025;28;20438;-87
2022/02/19 00:34:44;;;;;;;3.05;1.17;;;;;;;1.01;100.00;100412.38;4959202;28;20045;-88
2022/02/19 00:37:10;;;;;;;8.98;1.35;;;;;;;0.95;100.00;100402.25;4975665;28;20038;-88
2022/02/19 00:39:36;;;;;;;3.08;0.93;;;;;;;0.93;100.00;100408.63;4979974;28;20084;-88
2022/02/19 00:42:02;;;;;;;1.90;1.10;;;;;;;0.91;100.00;100415.88;4987104;28;20449;-86
2022/02/19 00:44:29;;;;;;;3.85;1.63;;;;;;;0.92;100.00;100401.69;4967241;28;20124;-87
2022/02/19 00:46:56;;;;;;;3.95;1.15;;;;;;;0.99;100.00;100402.88;4983024;28;20041;-87
2022/02/19 00:49:23;;;;;;;5.85;1.20;;;;;;;1.02;100.00;100399.97;4991576;28;20095;-86
2022/02/19 00:51:48;;;;;;;3.80;1.08;;;;;;;1.07;100.00;100405.75;4975876;28;20111;-88
2022/02/19 00:54:14;;;;;;;2.60;0.85;;;;;;;1.07;100.00;100409.22;4959976;28;20480;-87
2022/02/19 00:56:40;;;;;;;4.30;0.85;;;;;;;1.15;100.00;100411.25;4977376;28;20073;-87
2022/02/19 00:59:05;;;;;;;5.07;1.45;;;;;;;1.12;100.00;100402.75;4992641;28;20038;-87
2022/02/19 01:01:31;;;;;;;8.63;1.40;;;;;;;1.07;100.00;100403.09;4966185;28;20112;-88
2022/02/19 01:03:57;;;;;;;1.15;0.82;;;;;;;1.03;100.00;100397.22;4986139;28;20038;-88
2022/02/19 01:06:22;;;;;;;4.97;2.20;;;;;;;1.10;100.00;100384.31;4985642;28;20033;-86
2022/02/19 01:08:51;;;;;;;5.68;1.42;;;;;;;1.18;100.00;100394.28;4986884;28;20125;-88
2022/02/19 01:11:18;;;;;;;3.58;1.40;;;;;;;1.23;100.00;100410.66;4978786;28;20834;-87
2022/02/19 01:13:44;;;;;;;8.00;1.02;;;;;;;1.22;100.00;100409.81;4989405;28;20041;-87
2022/02/19 01:16:10;;;;;;;3.30;1.00;;;;;;;1.11;100.00;100385.97;4990572;28;20037;-88
2022/02/19 01:18:35;;;;;;;8.80;1.85;;;;;;;1.23;100.00;100400.88;4956746;28;20037;-88
2022/02/19 01:21:01;;;;;;;6.03;1.30;;;;;;;1.38;100.00;100397.97;4966784;28;20030;-88
2022/02/19 01:23:27;;;;;;;1.25;0.63;;;;;;;1.45;100.00;100384.06;4985209;28;20564;-87
2022/02/19 01:25:53;;;;;;;3.67;1.10;;;;;;;1.36;100.00;100360.16;4980340;28;20034;-87
2022/02/19 01:28:18;;;;;;;0.60;0.60;;;;;;;1.50;100.00;100378.41;4958634;28;20396;-88
2022/02/19 01:30:44;;;;;;;0.75;0.75;;;;;;;1.49;100.00;100382.03;4991188;28;20113;-88
2022/02/19 01:33:09;;;;;;;0.88;0.85;;;;;;;1.48;100.00;100375.03;4966225;28;20038;-88
2022/02/19 01:35:35;;;;;;;0.75;0.68;;;;;;;1.43;100.00;100364.84;4990735;28;20030;-89
2022/02/19 01:38:01;;;;;;;2.05;1.55;;;;;;;1.33;100.00;100345.38;4973516;28;20030;-87
2022/02/19 01:40:27;;;;;;;1.25;1.15;;;;;;;1.39;100.00;100352.78;4973868;28;20116;-88
2022/02/19 01:42:52;;;;;;;0.57;0.57;;;;;;;1.35;100.00;100345.22;5008222;28;20038;-87
2022/02/19 01:45:18;;;;;;;1.00;0.90;;;;;;;1.34;100.00;100346.19;4965995;28;20027;-87
2022/02/19 01:47:44;;;;;;;0.50;0.50;;;;;;;1.31;100.00;100342.84;4989820;28;20065;-88
2022/02/19 01:50:10;;;;;;;0.50;0.50;;;;;;;1.31;100.00;100348.13;4977859;28;20041;-87
2022/02/19 01:52:38;;;;;;;0.40;0.40;;;;;;;1.29;100.00;100343.91;4956648;28;20038;-89
2022/02/19 01:55:04;;;;;;;1.58;1.02;;;;;;;1.28;100.00;100347.56;4968587;28;20030;-88
2022/02/19 01:57:30;;;;;;;0.50;0.50;;;;;;;1.21;100.00;100333.97;4974778;28;20410;-89
2022/02/19 01:59:57;;;;;;;0.40;0.40;;;;;;;1.21;100.00;100341.06;5004339;28;20038;-87
2022/02/19 02:02:23;;;;;;;0.50;0.50;;;;;;;1.13;100.00;100317.84;4973670;28;20452;-87
2022/02/19 02:04:48;;;;;;;0.85;0.85;;;;;;;1.19;100.00;100330.63;4984314;28;20514;-90
2022/02/19 02:07:14;;;;;;;1.10;0.95;;;;;;;1.19;100.00;100319.16;4988462;28;20130;-88
2022/02/19 02:09:40;;;;;;;1.50;0.82;;;;;;;1.25;100.00;100322.16;4959537;28;20209;-85
2022/02/19 02:12:06;;;;;;;0.88;0.77;;;;;;;1.27;100.00;100333.47;4968429;28;20116;-87
2022/02/19 02:14:39;;;;;;;0.50;0.50;;;;;;;1.34;100.00;100338.25;4961839;28;20040;-87
2022/02/19 02:17:09;;;;;;;0.55;0.55;;;;;;;1.36;100.00;100331.88;4974413;28;20037;-88
2022/02/19 02:19:36;;;;;;;0.80;0.70;;;;;;;1.40;100.00;100333.28;4988441;28;21727;-89
2022/02/19 02:22:03;;;;;;;0.80;0.80;;;;;;;1.34;100.00;100328.50;4955898;28;20463;-86
2022/02/19 02:24:32;;;;;;;1.25;0.93;;;;;;;1.39;100.00;100321.00;4982526;28;20046;-87
2022/02/19 02:27:02;;;;;;;0.50;0.50;;;;;;;1.45;100.00;100324.94;4953330;28;20033;-88
2022/02/19 02:29:27;;;;;;;0.50;0.50;;;;;;;1.49;100.00;100311.31;4987530;28;20112;-88
2022/02/19 02:31:53;;;;;;;0.50;0.50;;;;;;;1.50;100.00;100294.44;4966672;28;20120;-88
2022/02/19 02:34:21;;;;;;;0.50;0.50;;;;;;;1.62;100.00;100305.84;4971794;28;20038;-87
2022/02/19 02:36:47;;;;;;;0.40;0.40;;;;;;;1.61;100.00;100292.72;4982762;28;20026;-88
2022/02/19 02:39:13;;;;;;;0.43;0.43;;;;;;;1.61;100.00;100287.41;4954640;28;20052;-87
2022/02/19 02:41:38;;;;;;;0.50;0.50;;;;;;;1.65;100.00;100287.03;4987398;28;20026;-88
2022/02/19 02:44:04;;;;;;;0.40;0.40;;;;;;;1.68;100.00;100292.06;4953335;28;20037;-87
2022/02/19 02:46:30;;;;;;;0.50;0.50;;;;;;;1.67;100.00;100286.91;4984868;28;20053;-88
2022/02/19 02:48:56;;;;;;;0.40;0.40;;;;;;;1.70;100.00;100276.03;4970636;28;20037;-88
2022/02/19 02:51:22;;;;;;;0.40;0.40;;;;;;;1.73;100.00;100271.31;4987298;28;20061;-90
2022/02/19 02:53:47;;;;;;;0.50;0.50;;;;;;;1.74;100.00;100270.34;4984328;28;20093;-88
2022/02/19 02:56:13;;;;;;;0.43;0.43;;;;;;;1.68;100.00;100252.31;4991263;28;20464;-87
2022/02/19 02:58:38;;;;;;;0.50;0.50;;;;;;;1.76;100.00;100247.19;4971115;28;20034;-88
2022/02/19 03:01:06;;;;;;;0.50;0.50;;;;;;;1.76;100.00;100235.75;4971509;28;20043;-88
2022/02/19 03:03:32;;;;;;;0.50;0.50;;;;;;;1.78;100.00;100238.28;4982131;28;20038;-87
2022/02/19 03:05:58;;;;;;;0.50;0.50;;;;;;;1.71;100.00;100222.88;4952655;28;20377;-88
2022/02/19 03:08:23;;;;;;;0.50;0.50;;;;;;;1.67;100.00;100210.88;4964560;28;20044;-88
2022/02/19 03:10:49;;;;;;;0.50;0.50;;;;;;;1.68;100.00;100209.06;4984435;28;20042;-88
2022/02/19 03:13:15;;;;;;;0.50;0.50;;;;;;;1.67;100.00;100215.34;4965536;28;20425;-88
2022/02/19 03:15:41;;;;;;;0.50;0.50;;;;;;;1.68;100.00;100198.47;4967634;28;20508;-85
2022/02/19 03:18:06;;;;;;;0.50;0.50;;;;;;;1.67;100.00;100191.50;5006513;28;20034;-88
2022/02/19 03:20:33;;;;;;;0.50;0.50;;;;;;;1.51;100.00;100155.72;4987736;28;20037;-88
2022/02/19 03:22:59;;;;;;;0.50;0.50;;;;;;;1.67;100.00;100181.75;4968617;28;20040;-86
2022/02/19 03:25:25;;;;;;;0.40;0.40;;;;;;;1.70;100.00;100173.50;4981867;28;20439;-88
2022/02/19 03:27:51;;;;;;;0.40;0.40;;;;;;;1.72;100.00;100160.13;4990374;28;20049;-88
2022/02/19 03:30:17;;;;;;;0.50;0.50;;;;;;;1.69;100.00;100142.69;4990889;28;20025;-87
2022/02/19 03:32:43;;;;;;;0.50;0.50;;;;;;;1.72;100.00;100142.44;4986152;28;20107;-88
2022/02/19 03:35:09;;;;;;;0.50;0.50;;;;;;;1.72;100.00;100129.19;4990647;28;20404;-89
2022/02/19 03:37:37;;;;;;;0.50;0.50;;;;;;;1.75;100.00;100128.06;4986680;28;20033;-88
2022/02/19 03:40:06;;;;;;;0.50;0.50;;;;;;;1.72;100.00;100100.03;5005354;28;20034;-88
2022/02/19 03:42:43;;;;;;;0.50;0.50;;;;;;;1.76;100.00;100089.97;4987376;28;20048;-87
2022/02/19 03:45:10;;;;;;;0.40;0.40;;;;;;;1.81;100.00;100085.09;4986916;28;20041;-86
2022/02/19 03:47:36;;;;;;;0.50;0.50;;;;;;;1.81;100.00;100077.16;5005408;28;20069;-87
2022/02/19 03:50:06;;;;;;;0.50;0.50;;;;;;;1.84;100.00;100070.75;4985246;28;20061;-90
2022/02/19 03:52:33;;;;;;;0.50;0.50;;;;;;;1.85;100.00;100064.47;4983379;28;20129;-88
2022/02/19 03:54:59;;;;;;;0.40;0.40;;;;;;;1.80;100.00;100038.38;4986675;28;20033;-89
2022/02/19 03:57:24;;;;;;;0.50;0.50;;;;;;;1.86;100.00;100039.63;4989465;28;20026;-87
2022/02/19 03:59:50;;;;;;;0.50;0.50;;;;;;;1.84;100.00;100021.22;5003752;28;20792;-87
2022/02/19 04:02:15;;;;;;;0.50;0.50;;;;;;;1.93;100.00;100006.28;5005570;28;20110;-90
2022/02/19 04:04:43;;;;;;;0.50;0.50;;;;;;;1.94;100.00;100002.66;4973859;28;20046;-89
2022/02/19 04:07:09;;;;;;;0.50;0.50;;;;;;;2.00;100.00;99985.38;4998993;28;20499;-86
2022/02/19 04:09:35;;;;;;;0.50;0.50;;;;;;;2.01;100.00;99971.94;4999524;28;20030;-89
2022/02/19 04:12:01;;;;;;;0.57;0.57;;;;;;;2.00;100.00;99956.19;4990353;28;20125;-88
2022/02/19 04:14:26;;;;;;;0.50;0.50;;;;;;;2.07;100.00;99970.59;4973978;28;20456;-89
2022/02/19 04:16:52;;;;;;;0.60;0.50;;;;;;;2.07;100.00;99960.81;4979586;28;20091;-86
2022/02/19 04:19:18;;;;;;;0.50;0.50;;;;;;;2.07;100.00;99955.50;4968217;28;20041;-89
2022/02/19 04:21:43;;;;;;;0.40;0.40;;;;;;;2.09;100.00;99934.13;4992453;28;20168;-90
2022/02/19 04:24:09;;;;;;;0.40;0.40;;;;;;;2.05;100.00;99920.31;4991816;28;20128;-90
2022/02/19 04:26:34;;;;;;;0.40;0.40;;;;;;;2.05;100.00;99916.84;4974820;28;20038;-88
2022/02/19 04:29:00;;;;;;;2.65;0.77;;;;;;;2.07;100.00;99907.78;4954698;28;20132;-89
2022/02/19 04:31:26;;;;;;;0.50;0.50;;;;;;;1.99;100.00;99907.66;4991288;28;20037;-86
2022/02/19 04:33:51;;;;;;;0.40;0.40;;;;;;;1.94;100.00;99904.56;4974629;28;20042;-88
2022/02/19 04:36:17;;;;;;;0.50;0.50;;;;;;;1.90;100.00;99887.28;5008905;28;20762;-88
2022/02/19 04:38:42;;;;;;;0.40;0.40;;;;;;;1.82;100.00;99871.22;5005937;28;20041;-88
2022/02/19 04:41:08;;;;;;;0.43;0.43;;;;;;;1.85;100.00;99882.38;4991187;28;20038;-86
2022/02/19 04:43:37;;;;;;;0.40;0.40;;;;;;;1.81;100.00;99864.28;4989545;28;20111;-87
2022/02/19 04:46:03;;;;;;;0.40;0.40;;;;;;;1.82;100.00;99850.03;4991475;28;20022;-87
2022/02/19 04:48:28;;;;;;;0.50;0.50;;;;;;;1.86;100.00;99846.13;4994247;28;20046;-88
2022/02/19 04:50:57;;;;;;;0.40;0.40;;;;;;;1.82;100.00;99819.06;5009351;28;20337;-87
2022/02/19 04:53:23;;;;;;;0.50;0.50;;;;;;;1.97;100.00;99822.09;4968006;28;20424;-88
2022/02/19 04:55:49;;;;;;;0.50;0.50;;;;;;;2.05;100.00;99816.91;4986091;28;20057;-89
2022/02/19 04:58:15;;;;;;;0.50;0.50;;;;;;;2.12;100.00;99803.94;4987932;28;20104;-87
2022/02/19 05:00:40;;;;;;;0.50;0.50;;;;;;;2.18;100.00;99798.03;5007770;28;20499;-88
2022/02/19 05:03:06;;;;;;;1.60;0.80;;;;;;;2.20;100.00;99781.00;4990932;28;20271;-87
2022/02/19 05:05:32;;;;;;;6.57;1.13;;;;;;;2.30;100.00;99774.78;4990114;28;20030;-88
2022/02/19 05:07:57;;;;;;;3.90;0.80;;;;;;;2.28;100.00;99758.22;4973131;28;20030;-88
2022/02/19 05:10:23;;;;;;;0.40;0.40;;;;;;;2.38;100.00;99751.03;4988765;28;20026;-87
2022/02/19 05:12:50;;;;;;;4.05;1.88;;;;;;;2.37;100.00;99731.63;4976020;28;20041;-88
2022/02/19 05:15:16;;;;;;;2.97;0.90;;;;;;;2.40;100.00;99714.56;5009077;28;20072;-88
2022/02/19 05:17:49;;;;;;;3.22;0.93;;;;;;;2.47;100.00;99702.38;4983071;28;20041;-84
2022/02/19 05:20:21;;;;;;;0.52;0.50;;;;;;;2.51;100.00;99694.94;5000457;28;20128;-88
2022/02/19 05:22:47;;;;;;;0.50;0.50;;;;;;;2.50;100.00;99680.84;4983548;28;20500;-88
2022/02/19 05:25:13;;;;;;;0.50;0.50;;;;;;;2.48;100.00;99671.38;4991926;28;20087;-88
2022/02/19 05:27:39;;;;;;;0.50;0.50;;;;;;;2.51;100.00;99655.97;4979264;28;20041;-87
2022/02/19 05:30:05;;;;;;;0.40;0.40;;;;;;;2.56;100.00;99664.31;4988257;28;20125;-87
2022/02/19 05:32:30;;;;;;;1.58;0.90;;;;;;;2.53;100.00;99634.63;4987768;28;20527;-86
2022/02/19 05:34:56;;;;;;;0.60;0.50;;;;;;;2.50;100.00;99629.63;4994039;28;20052;-86
2022/02/19 05:37:22;;;;;;;0.45;0.45;;;;;;;2.57;100.00;99628.84;4973790;28;20026;-88
2022/02/19 05:39:47;;;;;;;0.50;0.50;;;;;;;2.61;100.00;99632.03;4991733;28;20045;-88
2022/02/19 05:42:13;;;;;;;1.05;1.05;;;;;;;2.58;100.00;99606.63;5007194;28;20476;-86
2022/02/19 05:44:38;;;;;;;0.85;0.70;;;;;;;2.67;100.00;99596.09;5008423;28;20076;-87
2022/02/19 05:47:04;;;;;;;0.75;0.70;;;;;;;2.69;100.00;99584.31;4985752;28;20061;-89
2022/02/19 05:49:34;;;;;;;1.92;0.98;;;;;;;2.73;100.00;99576.91;4961106;28;20041;-87
2022/02/19 05:51:59;;;;;;;0.40;0.40;;;;;;;2.79;100.00;99553.22;4989466;28;20106;-88
2022/02/19 05:54:25;;;;;;;0.40;0.40;;;;;;;2.82;100.00;99541.47;4959776;28;20563;-86
2022/02/19 05:56:51;;;;;;;0.80;0.80;;;;;;;2.85;100.00;99520.72;4991354;28;20030;-87
2022/02/19 05:59:16;;;;;;;0.50;0.50;;;;;;;2.90;100.00;99500.84;4974032;28;20045;-88
2022/02/19 06:01:42;;;;;;;1.38;0.85;;;;;;;2.99;100.00;99497.25;4973155;28;20373;-87
2022/02/19 06:04:07;;;;;;;0.50;0.50;;;;;;;3.06;100.00;99501.75;4974246;28;20045;-87
2022/02/19 06:06:33;;;;;;;0.40;0.40;;;;;;;3.09;100.00;99484.69;4989718;28;20469;-88
2022/02/19 06:08:59;;;;;;;0.47;0.47;;;;;;;3.14;100.00;99529.38;5009408;28;20044;-82
2022/02/19 06:11:24;;;;;;;0.40;0.40;;;;;;;3.11;100.00;99530.50;4974228;28;20037;-88
2022/02/19 06:13:50;;;;;;;0.50;0.50;;;;;;;3.12;100.00;99560.56;4989486;28;20109;-87
2022/02/19 06:16:15;;;;;;;0.80;0.70;;;;;;;3.12;100.00;99520.72;4975244;28;20038;-87
2022/02/19 06:18:41;;;;;;;3.75;1.45;;;;;;;3.22;100.00;99516.94;4992133;28;20084;-87
2022/02/19 06:21:07;;;;;;;3.28;1.08;;;;;;;3.38;100.00;99521.50;4990965;28;20399;-87
2022/02/19 06:23:32;;;;;;;0.60;0.60;;;;;;;3.45;100.00;99511.91;4957089;28;20107;-87
2022/02/19 06:25:58;;;;;;;0.60;0.60;;;;;;;3.59;100.00;99523.75;5002593;28;20451;-87
2022/02/19 06:28:24;;;;;;;0.50;0.50;;;;;;;3.69;100.00;99512.97;4966157;28;20038;-88
2022/02/19 06:30:49;;;;;;;0.50;0.50;;;;;;;3.82;100.00;99513.34;4990224;28;20030;-88
2022/02/19 06:33:15;;;;;;;0.60;0.60;;;;;;;4.02;100.00;99505.06;4967797;28;20392;-86
2022/02/19 06:35:41;;;;;;;0.40;0.40;;;;;;;4.18;100.00;99502.41;4989856;28;20034;-87
2022/02/19 06:38:06;;;;;;;0.50;0.50;;;;;;;4.32;100.00;99504.44;4973655;28;20042;-86
2022/02/19 06:40:32;;;;;;;0.40;0.40;;;;;;;4.42;100.00;99490.97;4982408;28;20034;-87
2022/02/19 06:42:58;;;;;;;1.58;0.80;;;;;;;4.62;100.00;99494.09;4969402;28;20032;-88
2022/02/19 06:45:23;;;;;;;0.40;0.40;;;;;;;4.73;100.00;99468.94;4971050;28;20388;-87
2022/02/19 06:47:49;;;;;;;0.40;0.40;;;;;;;4.83;100.00;99477.56;4987138;28;20030;-89
2022/02/19 06:50:15;;;;;;;0.40;0.40;;;;;;;4.88;100.00;99471.75;4984928;28;20050;-88
2022/02/19 06:52:41;;;;;;;0.40;0.40;;;;;;;5.05;100.00;99478.66;4977377;28;20030;-88
2022/02/19 06:55:07;;;;;;;0.40;0.40;;;;;;;5.21;100.00;99478.63;4980063;28;20042;-88
2022/02/19 06:57:32;;;;;;;0.40;0.40;;;;;;;5.33;100.00;99475.59;4977037;28;20400;-87
2022/02/19 06:59:58;;;;;;;8.98;0.85;;;;;;;5.43;100.00;99476.22;4967649;28;20132;-88
2022/02/19 07:02:26;;;;;;;0.40;0.40;;;;;;;5.46;100.00;99459.88;4987634;28;20040;-87
2022/02/19 07:04:54;;;;;;;0.40;0.40;;;;;;;5.51;100.00;99458.34;4998200;28;20033;-88
2022/02/19 07:07:19;;;;;;;0.60;0.60;;;;;;;5.65;100.00;99475.41;4984033;28;20033;-88
2022/02/19 07:09:45;;;;;;;0.40;0.40;;;;;;;5.71;100.00;99463.22;4965620;28;20046;-88
2022/02/19 07:12:11;;;;;;;0.85;0.80;;;;;;;5.81;100.00;99471.00;4980079;28;20029;-88
2022/02/19 07:14:37;;;;;;;1.90;0.70;;;;;;;5.91;100.00;99472.41;4968140;28;20069;-88
2022/02/19 07:17:05;;;;;;;0.50;0.50;;;;;;;5.99;100.00;99460.91;4988098;28;20057;-89
2022/02/19 07:19:34;;;;;;;0.40;0.40;;;;;;;6.07;100.00;99460.00;4967938;28;20042;-86
2022/02/19 07:22:00;;;;;;;0.50;0.50;;;;;;;6.16;100.00;99459.75;4983571;28;20030;-88
2022/02/19 07:24:26;;;;;;;5.40;0.70;;;;;;;6.24;100.00;99466.03;4982203;28;20044;-89
2022/02/19 07:26:53;;;;;;;0.52;0.50;;;;;;;6.27;100.00;99473.69;4978113;28;20033;-88
2022/02/19 07:29:23;;;;;;;1.95;0.77;;;;;;;6.11;100.00;99467.50;4989445;28;20030;-89
2022/02/19 07:31:49;;;;;;;8.88;0.75;;;;;;;6.07;100.00;99463.50;4969411;28;20050;-88
2022/02/19 07:34:15;;;;;;;0.50;0.50;;;;;;;5.93;100.00;99472.25;4986042;28;20040;-88
2022/02/19 07:36:41;;;;;;;7.60;0.82;;;;;;;5.81;100.00;99479.81;4986678;28;20034;-88
2022/02/19 07:39:08;;;;;;;0.50;0.50;;;;;;;5.84;100.00;99487.47;4974652;28;20440;-88
2022/02/19 07:41:34;;;;;;;1.92;0.55;;;;;;;6.00;100.00;99489.22;4986736;28;20122;-86
2022/02/19 07:44:01;;;;;;;0.95;0.52;;;;;;;6.07;100.00;99497.38;4962584;28;20030;-88
2022/02/19 07:46:26;;;;;;;1.05;0.77;;;;;;;6.14;100.00;99519.69;4991767;28;20060;-88
2022/02/19 07:48:52;;;;;;;2.35;0.73;;;;;;;6.15;100.00;99524.81;4977324;28;20057;-89
2022/02/19 07:59:33;;;;;;;0.50;0.50;;;;;;;5.63;100.00;99541.41;4990131;28;20040;-88
2022/02/19 08:01:58;;;;;;;0.63;0.63;;;;;;;5.73;100.00;99549.22;4975189;28;20037;-89
2022/02/19 08:04:24;;;;;;;0.47;0.47;;;;;;;5.93;100.00;99554.97;4970328;28;20422;-89
2022/02/19 08:06:50;;;;;;;0.85;0.80;;;;;;;6.08;100.00;99552.38;4977077;28;20029;-90
2022/02/19 08:09:15;;;;;;;1.95;0.55;;;;;;;6.21;100.00;99568.66;4965944;28;20141;-88
2022/02/19 08:11:41;;;;;;;20.98;2.08;;;;;;;6.25;100.00;99561.97;4975339;28;20029;-89
2022/02/19 08:14:07;;;;;;;2.60;0.50;;;;;;;6.41;100.00;99566.34;4960052;28;20404;-88
2022/02/19 08:16:33;;;;;;;2.20;1.38;;;;;;;6.56;100.00;99587.75;5001080;28;20092;-89
2022/02/19 08:18:59;;;;;;;6.75;1.85;;;;;;;6.67;100.00;99589.19;4969134;28;20054;-88
2022/02/19 08:21:26;;;;;;;0.50;0.50;;;;;;;6.80;100.00;99584.91;4994394;28;20041;-89
2022/02/19 08:23:51;;;;;;;19.27;2.70;;;;;;;6.73;100.00;99583.97;4957169;28;20449;-88
2022/02/19 08:26:23;;;;;;;3.92;1.67;;;;;;;6.80;100.00;99568.88;4993385;28;20089;-88
2022/02/19 08:28:51;;;;;;;0.77;0.77;;;;;;;6.91;100.00;99591.66;4982314;28;20031;-88
2022/02/19 08:31:23;;;;;;;2.67;0.95;;;;;;;6.98;100.00;99605.94;4976446;28;20021;-88
2022/02/19 08:33:53;;;;;;;0.70;0.70;;;;;;;7.05;100.00;99622.94;4991443;28;20061;-88
2022/02/19 08:36:29;;;;;;;5.60;1.20;;;;;;;6.98;100.00;99603.28;4953000;28;20477;-86
2022/02/19 08:38:55;;;;;;;8.27;1.60;;;;;;;7.04;100.00;99623.94;4993835;28;20022;-89
2022/02/19 08:41:24;;;;;;;7.53;2.20;;;;;;;7.27;100.00;99634.56;4960485;28;20040;-88
2022/02/19 08:43:53;;;;;;;9.75;2.33;;;;;;;7.45;100.00;99633.41;4977307;28;20910;-89
2022/02/19 08:46:21;;;;;;;7.10;1.75;;;;;;;7.62;100.00;99653.63;4989557;28;20076;-89
2022/02/19 08:48:52;;;;;;;14.82;2.25;;;;;;;7.65;100.00;99655.13;4992070;28;22056;-88
2022/02/19 08:51:17;;;;;;;0.80;0.68;;;;;;;7.74;100.00;99654.00;4975312;28;20464;-86
2022/02/19 08:53:43;;;;;;;2.85;1.10;;;;;;;7.70;100.00;99666.94;4960630;28;20069;-88
2022/02/19 08:56:09;;;;;;;2.05;0.98;;;;;;;7.56;100.00;99646.31;4958659;28;20039;-89
2022/02/19 08:58:34;;;;;;;0.50;0.50;;;;;;;7.68;100.00;99676.16;4991330;28;20492;-89
2022/02/19 09:01:02;;;;;;;2.38;1.08;;;;;;;7.65;100.00;99677.34;4961474;28;20111;-89
2022/02/19 09:03:28;;;;;;;12.20;1.98;;;;;;;7.88;100.00;99698.66;5009190;28;20459;-82
2022/02/19 09:05:56;;;;;;;7.13;1.70;;;;;;;8.11;100.00;99684.34;4998619;28;20127;-84
2022/02/19 09:08:22;;;;;;;10.65;2.53;;;;;;;8.17;100.00;99725.63;4981873;28;20050;-82
2022/02/19 09:10:47;;;;;;;6.53;1.60;;;;;;;8.09;100.00;99719.34;5003532;28;20030;-83
2022/02/19 09:13:13;;;;;;;4.85;1.65;;;;;;;8.23;100.00;99744.47;4981869;28;20036;-82
2022/02/19 09:15:38;;;;;;;11.23;2.03;;;;;;;8.44;100.00;99748.25;4992837;28;20123;-86
2022/02/19 09:18:07;;;;;;;8.35;1.65;;;;;;;8.57;100.00;99756.44;4972567;28;20101;-83
2022/02/19 09:20:33;;;;;;;7.40;1.48;;;;;;;8.39;100.00;99740.78;4978455;28;20392;-83
2022/02/19 09:22:59;;;;;;;2.05;1.40;;;;;;;8.17;100.00;99750.53;5011244;28;20021;-84
2022/02/19 09:25:24;;;;;;;11.15;2.20;;;;;;;8.15;100.00;99787.41;4994456;28;20022;-82
2022/02/19 09:27:50;;;;;;;9.75;2.70;;;;;;;7.98;100.00;99770.66;4991242;28;20037;-83
2022/02/19 09:30:16;;;;;;;8.50;3.65;;;;;;;8.28;100.00;99789.41;4986547;28;20030;-82
2022/02/19 09:32:41;;;;;;;16.35;2.92;;;;;;;8.52;100.00;99812.44;5000937;28;20148;-84
2022/02/19 09:35:08;;;;;;;10.18;1.77;;;;;;;8.74;100.00;99824.91;4971946;28;20466;-82
2022/02/19 09:37:33;;;;;;;4.47;1.42;;;;;;;8.69;100.00;99824.63;4999312;28;20030;-82
2022/02/19 09:39:59;;;;;;;13.60;2.15;;;;;;;8.55;100.00;99825.50;4983441;28;20049;-82
2022/02/19 09:42:25;;;;;;;2.70;1.70;;;;;;;8.53;100.00;99835.56;4999310;28;20537;-82
2022/02/19 09:44:52;;;;;;;15.43;3.40;;;;;;;8.28;100.00;99800.97;5004630;28;20052;-82
2022/02/19 09:47:24;;;;;;;10.82;2.35;;;;;;;8.46;100.00;99845.34;5005292;28;20084;-83
2022/02/19 09:49:49;;;;;;;9.90;2.00;;;;;;;8.54;100.00;99864.81;4997190;28;20107;-81
2022/02/19 09:52:15;;;;;;;11.68;2.00;;;;;;;8.70;100.00;99876.38;4999361;28;20477;-84
2022/02/19 09:54:41;;;;;;;13.05;3.10;;;;;;;8.91;100.00;99862.22;4961621;28;20101;-83
2022/02/19 09:57:06;;;;;;;6.45;1.65;;;;;;;9.03;100.00;99863.41;4988127;28;20064;-84
2022/02/19 09:59:34;;;;;;;12.07;2.55;;;;;;;9.15;100.00;99886.03;4985257;28;20464;-84
2022/02/19 10:02:00;;;;;;;14.15;2.03;;;;;;;9.11;100.00;99897.34;5012524;28;20062;-82
2022/02/19 10:04:26;;;;;;;23.00;2.35;;;;;;;9.14;100.00;99902.34;5005191;28;20037;-84
2022/02/19 10:06:52;;;;;;;6.18;1.60;;;;;;;9.09;100.00;99894.84;4981616;28;20649;-89
2022/02/19 10:09:19;;;;;;;8.23;2.08;;;;;;;8.97;100.00;99899.00;4994231;28;20091;-83
2022/02/19 10:11:47;;;;;;;8.00;3.20;;;;;;;8.96;100.00;99933.03;4980331;28;20097;-83
2022/02/19 10:14:29;;;;;;;8.65;2.03;;;;;;;9.08;100.00;99922.69;4975027;28;20045;-83
2022/02/19 10:17:16;;;;;;;5.47;1.80;;;;;;;9.24;100.00;99935.06;5005621;28;20033;-83
2022/02/19 10:19:52;;;;;;;7.97;2.13;;;;;;;9.28;100.00;99941.69;4997471;28;20460;-84
2022/02/19 10:22:21;;;;;;;9.93;2.70;;;;;;;9.50;100.00;99941.75;5001221;28;20048;-82
2022/02/19 10:24:50;;;;;;;13.00;2.83;;;;;;;10.33;99.92;99940.34;5007244;28;20628;-83
2022/02/19 10:27:16;;;;;;;11.60;2.63;;;;;;;11.23;93.21;99952.09;4971666;28;20033;-83
2022/02/19 10:29:47;;;;;;;11.82;2.17;;;;;;;11.14;93.66;99950.59;4993275;28;20033;-83
2022/02/19 10:32:13;;;;;;;13.40;4.40;;;;;;;11.42;90.91;99964.78;5001922;28;20029;-83
2022/02/19 10:34:58;;;;;;;15.18;2.70;;;;;;;11.37;94.84;99959.19;5007808;28;20030;-84
2022/02/19 10:37:25;;;;;;;16.17;2.80;;;;;;;11.17;93.29;99972.56;5001580;28;20044;-82
2022/02/19 10:39:51;;;;;;;15.50;3.38;;;;;;;10.85;92.86;99987.47;4990648;28;20119;-88
2022/02/19 10:42:17;;;;;;;8.07;1.88;;;;;;;10.87;93.12;99973.81;4986083;28;20040;-83
2022/02/19 10:44:44;;;;;;;12.80;2.22;;;;;;;11.00;92.83;99995.41;4968027;28;20033;-84
2022/02/19 10:47:25;;;;;;;6.80;2.35;;;;;;;10.84;93.01;99977.72;4982320;28;20026;-83
2022/02/19 10:50:08;;;;;;;6.07;1.98;;;;;;;10.75;93.11;100012.00;4984550;28;20040;-86
2022/02/19 10:52:34;;;;;;;17.60;4.30;;;;;;;10.48;93.41;100013.66;5001784;28;20068;-84
2022/02/19 10:55:04;;;;;;;17.25;3.67;;;;;;;10.30;94.59;100015.97;4984448;28;20076;-83
2022/02/19 10:57:35;;;;;;;11.00;2.67;;;;;;;10.13;98.83;100010.81;5010036;28;20109;-83
2022/02/19 11:00:15;;;;;;;21.08;4.18;;;;;;;10.25;95.59;100018.38;4986715;28;20037;-83
2022/02/19 11:02:42;;;;;;;15.85;2.53;;;;;;;10.44;95.12;100031.19;4978045;28;20033;-82
2022/02/19 11:05:09;;;;;;;11.80;2.55;;;;;;;10.56;96.33;100024.28;4970618;28;20076;-84
2022/02/19 11:07:37;;;;;;;14.40;2.83;;;;;;;10.77;93.70;100015.34;4994068;28;20379;-85
2022/02/19 11:10:05;;;;;;;15.00;2.38;;;;;;;10.95;94.93;100027.44;5000923;28;20121;-84
2022/02/19 11:12:30;;;;;;;17.60;2.80;;;;;;;11.10;88.52;100043.50;4988169;28;20091;-84
2022/02/19 11:14:56;;;;;;;7.43;2.42;;;;;;;11.29;87.61;100040.09;4976208;28;20033;-84
2022/02/19 11:17:23;;;;;;;6.15;2.22;;;;;;;11.78;82.13;100041.78;4998080;28;20034;-83
2022/02/19 11:19:49;;;;;;;6.13;2.70;;;;;;;11.79;79.16;100048.00;4992501;28;20101;-83
2022/02/19 11:22:16;;;;;;;15.15;3.28;;;;;;;11.61;81.96;100045.84;4972422;28;21956;-86
2022/02/19 11:24:44;;;;;;;12.88;2.95;;;;;;;11.60;83.46;100039.66;4986424;28;20030;-83
2022/02/19 11:27:10;;;;;;;11.73;2.22;;;;;;;12.12;80.52;100066.19;4964748;28;20485;-84
2022/02/19 11:29:36;;;;;;;6.70;1.80;;;;;;;12.30;79.97;100074.53;4986607;28;20029;-84
2022/02/19 11:32:04;;;;;;;3.58;1.88;;;;;;;12.26;77.86;100065.19;4997628;28;20034;-83
2022/02/19 11:34:29;;;;;;;15.90;2.50;;;;;;;11.63;79.26;100054.56;4995406;28;20024;-82